Sign-in with your pilot id or email, or register

ICAO: LMML Name / Country: Luqa / Malta
Latitude: 35.8575 Longitude: 14.4772
Total Arrivals:
Strict Standards: Non-static method AirportData::getarrflights() should not be called statically, assuming $this from incompatible context in /var/www/customers/vh-7192/web/home/phpvms/core/templates/airport_info.tpl on line 18
1
Total Departures:
Strict Standards: Non-static method AirportData::getdeptflights() should not be called statically, assuming $this from incompatible context in /var/www/customers/vh-7192/web/home/phpvms/core/templates/airport_info.tpl on line 21
1
Latest Arrival: MTA11P (LHBP-LMML) Tibor Berces Latest Departure: MTA11P (LMML-LHBP) Tibor Berces
Metar: LMML 271115Z 17014KT 140V200 CAVOK 25/15 Q1011 NOSIG
More info

Charts for LMML


NOTAM


Warning: file_get_contents(http://api.vateud.net/notams/LMML.json): failed to open stream: Redirection limit reached, aborting in /var/www/customers/vh-7192/web/home/phpvms/core/common/NOTAMSData.class.php on line 18

Warning: Invalid argument supplied for foreach() in /var/www/customers/vh-7192/web/home/phpvms/core/common/NOTAMSData.class.php on line 22

Luqa